Orem, UT (84057)

10:18 PM MDT on September 23, 2014 (GMT -0600)
Orem City Cemetery | Change Station
CLOSE
Current Station
Personal Weather Station
Location: Orem, UT
Elevation: 4917 ft
Nearby Weather Stations

Elev 4917 ft 40.32 °N, 111.67 °W | Updated 4 seconds ago

Clear
Clear
70.9 °F
Feels Like 77 °F
N
0.0
Wind Variable Wind from WSW
Gusts 0.0 mph

Today
High -- | Low -- °F
--% Chance of Precip.
Yesterday
High -- | Low -- °F
Precip. -- in
7:15 AM 7:22 PM
Waning Crescent, 0% visible
Pressure 30.16 in
Visibility 10.0 miles
Clouds Clear
Heat Index 77 °F
Dew Point 47 °F
Humidity 42%
Rainfall 0.00 in
Snow Depth 0 in , 0 in , 0 in
UV 0 out of 12
Pollen 4.80 out of 12
Air Quality Not available.
Flu Activity Not available.
METAR KPVU 240355Z AUTO 14003KT 10SM CLR 18/10 A3016 RMK AO1

More Conditions Fewer Conditions

Pressure 30.16 in
Visibility 10.0 miles
Clouds Clear
Heat Index 77 °F
Dew Point 47 °F
Humidity 42%
Rainfall 0.00 in
Snow Depth 0 in , 0 in , 0 in
UV 0 out of 12
Pollen 4.80 out of 12
Air Quality Not available.
Flu Activity Not available.
METAR KPVU 240355Z AUTO 14003KT 10SM CLR 18/10 A3016 RMK AO1

More Conditions Fewer Conditions

10-Day Weather Forecast

Almanac

Astronomy

Sep. 23, 2014 Rise Set
Actual Time 7:15 AM MDT 7:22 PM MDT
Civil Twilight 6:48 AM MDT 7:49 PM MDT
Nautical Twilight 6:16 AM MDT 8:20 PM MDT
Astronomical Twilight 5:44 AM MDT 8:53 PM MDT
Moon 6:43 AM MDT (9/23) 7:02 PM MDT (9/23)
Length of Visible Light 13h 00m
Length of Day
12h 06m
Tomorrow will be 2m 39s shorter.
Waning Crescent, 0% of the Moon is Illuminated
Sep 24
Waning Crescent
Sep 24
New
Oct 1
First Quarter
Oct 8
Full
Oct 15
Last Quarter

Today's Extremes

State Highs State Lows

Community

WunderPhotos

Upload Photos

1,755,890 photos uploaded!

WunderBlogs® & News

Nearby

Snow Depth

Station Depth Elevation
Clear Creek #2 0 in 8300 ft
Trout Creek 0 in 9400 ft
Mosby Mountain 0 in 9500 ft
Box Creek 0 in 9800 ft
Ben Lomond Peak 0 in 8000 ft

Earthquake Activity

City Distance Mag. Time & Date
No recent earthquake activity has been reported nearby.
Minimum magnitude displayed is 2.5.

Coastal Water Temperatures

Place Temperature
No Stations Reporting

Nearby Weather Stations